EZY547L EGGW-EGPD
Flight info
| Callsign | EZY547L |
|---|---|
| Flight time | 0h 59m |
| Altitude | 34000 |
| Route | OLNEY T420 AKUPA UY250 KEFTE/N0420F330 DCT MADAD/N0414F320 DCT NEXUS/N0365F240 P18 EPCAN |
| Aircraft | A320/M-SDE3FGHIRWY/LB1 |
Departure
| Time | 2026-04-29 18:02 |
|---|---|
| Airport | London Luton Airport (EGGW) |
Arrival
| Time | 2026-04-29 19:01 |
|---|---|
| Airport | Aberdeen International Airport (EGPD) |
| Time | Latitude | Longitude | Altitude | Speed | Heading |
|---|---|---|---|---|---|
| 2026-04-29 17:47 | 51.87959 | -0.37906 | 523 ft | 0 kts | 127° |
| 2026-04-29 17:54 | 51.87966 | -0.37921 | 523 ft | 3 kts | 137° |
| 2026-04-29 17:54 | 51.87981 | -0.37937 | 523 ft | 3 kts | 170° |
| 2026-04-29 17:55 | 51.87999 | -0.37939 | 523 ft | 1 kts | 183° |
| 2026-04-29 17:55 | 51.88001 | -0.37939 | 523 ft | 0 kts | 184° |
| 2026-04-29 17:57 | 51.87991 | -0.37954 | 523 ft | 4 kts | 227° |
| 2026-04-29 17:57 | 51.87968 | -0.37993 | 523 ft | 4 kts | 218° |
| 2026-04-29 17:57 | 51.87951 | -0.38005 | 523 ft | 4 kts | 201° |
| 2026-04-29 17:58 | 51.87893 | -0.38015 | 523 ft | 9 kts | 176° |
| 2026-04-29 17:58 | 51.87829 | -0.37968 | 523 ft | 10 kts | 142° |
| 2026-04-29 17:58 | 51.87790 | -0.37882 | 523 ft | 10 kts | 116° |
| 2026-04-29 17:58 | 51.87760 | -0.37777 | 523 ft | 11 kts | 115° |
| 2026-04-29 17:59 | 51.87723 | -0.37649 | 519 ft | 16 kts | 115° |
| 2026-04-29 17:59 | 51.87665 | -0.37499 | 521 ft | 15 kts | 140° |
| 2026-04-29 17:59 | 51.87561 | -0.37462 | 522 ft | 18 kts | 191° |
| 2026-04-29 17:59 | 51.87496 | -0.37595 | 523 ft | 15 kts | 253° |
| 2026-04-29 18:00 | 51.87465 | -0.37767 | 522 ft | 18 kts | 255° |
| 2026-04-29 18:00 | 51.87443 | -0.37892 | 523 ft | 8 kts | 254° |
| 2026-04-29 18:00 | 51.87424 | -0.37990 | 524 ft | 10 kts | 245° |
| 2026-04-29 18:00 | 51.87360 | -0.38074 | 523 ft | 13 kts | 206° |
| 2026-04-29 18:01 | 51.87286 | -0.38115 | 522 ft | 8 kts | 191° |
| 2026-04-29 18:01 | 51.87251 | -0.38077 | 524 ft | 9 kts | 96° |
| 2026-04-29 18:01 | 51.87297 | -0.37798 | 524 ft | 56 kts | 74° |
| 2026-04-29 18:01 | 51.87464 | -0.36831 | 524 ft | 118 kts | 74° |
| 2026-04-29 18:02 | 51.87697 | -0.35445 | 1051 ft | 125 kts | 74° |
| 2026-04-29 18:02 | 51.87935 | -0.34087 | 1741 ft | 128 kts | 74° |
| 2026-04-29 18:02 | 51.88199 | -0.32619 | 2118 ft | 149 kts | 75° |
| 2026-04-29 18:02 | 51.88508 | -0.30892 | 2449 ft | 171 kts | 75° |
| 2026-04-29 18:03 | 51.88860 | -0.28914 | 2905 ft | 189 kts | 77° |
| 2026-04-29 18:03 | 51.89468 | -0.26983 | 3476 ft | 203 kts | 49° |
| 2026-04-29 18:03 | 51.90838 | -0.26113 | 3989 ft | 229 kts | 7° |
| 2026-04-29 18:03 | 51.92400 | -0.26959 | 4511 ft | 252 kts | 326° |
| 2026-04-29 18:04 | 51.93405 | -0.29285 | 5026 ft | 263 kts | 286° |
| 2026-04-29 18:04 | 51.93539 | -0.32234 | 5516 ft | 265 kts | 262° |
| 2026-04-29 18:04 | 51.93248 | -0.35186 | 6321 ft | 266 kts | 255° |
| 2026-04-29 18:04 | 51.93012 | -0.38179 | 7119 ft | 271 kts | 268° |
| 2026-04-29 18:05 | 51.93310 | -0.41193 | 7892 ft | 273 kts | 291° |
| 2026-04-29 18:05 | 51.94278 | -0.43821 | 8680 ft | 272 kts | 313° |
| 2026-04-29 18:05 | 51.95605 | -0.46014 | 9501 ft | 273 kts | 321° |
| 2026-04-29 18:05 | 51.97094 | -0.48130 | 9867 ft | 297 kts | 322° |
| 2026-04-29 18:06 | 51.98160 | -0.49616 | 10067 ft | 312 kts | 321° |
| 2026-04-29 18:06 | 51.99850 | -0.52050 | 10336 ft | 337 kts | 320° |
| 2026-04-29 18:06 | 52.01605 | -0.54715 | 10798 ft | 351 kts | 317° |
| 2026-04-29 18:06 | 52.03359 | -0.57519 | 11526 ft | 357 kts | 316° |
| 2026-04-29 18:07 | 52.05113 | -0.60421 | 12217 ft | 363 kts | 315° |
| 2026-04-29 18:07 | 52.06876 | -0.63393 | 12936 ft | 367 kts | 315° |
| 2026-04-29 18:07 | 52.08652 | -0.66409 | 13650 ft | 371 kts | 314° |
| 2026-04-29 18:07 | 52.10445 | -0.69456 | 14341 ft | 375 kts | 314° |
| 2026-04-29 18:08 | 52.12291 | -0.72493 | 14932 ft | 379 kts | 320° |
| 2026-04-29 18:08 | 52.14379 | -0.75026 | 15542 ft | 380 kts | 330° |
| 2026-04-29 18:08 | 52.16650 | -0.77254 | 16196 ft | 382 kts | 331° |
| 2026-04-29 18:08 | 52.18936 | -0.79500 | 16834 ft | 385 kts | 331° |
| 2026-04-29 18:09 | 52.21240 | -0.81775 | 17474 ft | 388 kts | 331° |
| 2026-04-29 18:09 | 52.23560 | -0.84071 | 18091 ft | 392 kts | 331° |
| 2026-04-29 18:09 | 52.25898 | -0.86388 | 18691 ft | 395 kts | 331° |
| 2026-04-29 18:09 | 52.28252 | -0.88728 | 19209 ft | 398 kts | 331° |
| 2026-04-29 18:10 | 52.30633 | -0.91055 | 19742 ft | 400 kts | 334° |
| 2026-04-29 18:10 | 52.33227 | -0.92628 | 20241 ft | 398 kts | 350° |
| 2026-04-29 18:10 | 52.35934 | -0.93616 | 20757 ft | 400 kts | 351° |
| 2026-04-29 18:10 | 52.38673 | -0.94589 | 21267 ft | 404 kts | 351° |
| 2026-04-29 18:11 | 52.41437 | -0.95557 | 21764 ft | 407 kts | 351° |
| 2026-04-29 18:11 | 52.44215 | -0.96529 | 22232 ft | 410 kts | 351° |
| 2026-04-29 18:11 | 52.47015 | -0.97518 | 22694 ft | 413 kts | 350° |
| 2026-04-29 18:11 | 52.49740 | -0.98488 | 23151 ft | 417 kts | 350° |
| 2026-04-29 18:12 | 52.52582 | -0.99500 | 23609 ft | 419 kts | 350° |
| 2026-04-29 18:12 | 52.55450 | -1.00523 | 24006 ft | 424 kts | 350° |
| 2026-04-29 18:12 | 52.58305 | -1.01543 | 24370 ft | 427 kts | 350° |
| 2026-04-29 18:12 | 52.61218 | -1.02589 | 24771 ft | 429 kts | 350° |
| 2026-04-29 18:13 | 52.64141 | -1.03640 | 25180 ft | 431 kts | 350° |
| 2026-04-29 18:13 | 52.67075 | -1.04692 | 25568 ft | 432 kts | 350° |
| 2026-04-29 18:13 | 52.70018 | -1.05746 | 25970 ft | 434 kts | 350° |
| 2026-04-29 18:13 | 52.72980 | -1.06806 | 26358 ft | 436 kts | 350° |
| 2026-04-29 18:14 | 52.75931 | -1.07843 | 26841 ft | 438 kts | 351° |
| 2026-04-29 18:14 | 52.78928 | -1.08806 | 27198 ft | 440 kts | 351° |
| 2026-04-29 18:14 | 52.81959 | -1.09713 | 27545 ft | 443 kts | 352° |
| 2026-04-29 18:14 | 52.85006 | -1.10592 | 27869 ft | 445 kts | 352° |
| 2026-04-29 18:15 | 52.88075 | -1.11477 | 28250 ft | 447 kts | 352° |
| 2026-04-29 18:15 | 52.91150 | -1.12377 | 28609 ft | 449 kts | 352° |
| 2026-04-29 18:15 | 52.94236 | -1.13296 | 28932 ft | 452 kts | 352° |
| 2026-04-29 18:15 | 52.97338 | -1.14237 | 29314 ft | 453 kts | 351° |
| 2026-04-29 18:16 | 53.00409 | -1.15181 | 29634 ft | 456 kts | 351° |
| 2026-04-29 18:16 | 53.03582 | -1.16162 | 29933 ft | 459 kts | 351° |
| 2026-04-29 18:16 | 53.06701 | -1.17129 | 30249 ft | 462 kts | 351° |
| 2026-04-29 18:16 | 53.09868 | -1.18111 | 30537 ft | 464 kts | 351° |
| 2026-04-29 18:17 | 53.13054 | -1.19098 | 30795 ft | 466 kts | 351° |
| 2026-04-29 18:17 | 53.16254 | -1.20085 | 31068 ft | 467 kts | 351° |
| 2026-04-29 18:17 | 53.19470 | -1.21073 | 31326 ft | 469 kts | 351° |
| 2026-04-29 18:17 | 53.22651 | -1.22052 | 31570 ft | 471 kts | 351° |
| 2026-04-29 18:18 | 53.25884 | -1.23051 | 31847 ft | 472 kts | 351° |
| 2026-04-29 18:18 | 53.29119 | -1.24050 | 32162 ft | 473 kts | 351° |
| 2026-04-29 18:18 | 53.32350 | -1.25050 | 32489 ft | 473 kts | 351° |
| 2026-04-29 18:18 | 53.35584 | -1.26058 | 32829 ft | 472 kts | 352° |
| 2026-04-29 18:19 | 53.38813 | -1.27071 | 33162 ft | 472 kts | 352° |
| 2026-04-29 18:19 | 53.42047 | -1.28004 | 33497 ft | 470 kts | 356° |
| 2026-04-29 18:19 | 53.45303 | -1.28449 | 33831 ft | 469 kts | 359° |
| 2026-04-29 18:19 | 53.48551 | -1.28841 | 34169 ft | 468 kts | 359° |
| 2026-04-29 18:20 | 53.51804 | -1.29235 | 34358 ft | 469 kts | 359° |
| 2026-04-29 18:20 | 53.58223 | -1.30834 | 34388 ft | 473 kts | 345° |
| 2026-04-29 18:21 | 53.64175 | -1.35604 | 34394 ft | 476 kts | 330° |
| 2026-04-29 18:21 | 53.69856 | -1.41381 | 34399 ft | 477 kts | 330° |
| 2026-04-29 18:22 | 53.75550 | -1.47146 | 34403 ft | 477 kts | 330° |
| 2026-04-29 18:22 | 53.81241 | -1.52892 | 34407 ft | 476 kts | 330° |
| 2026-04-29 18:23 | 53.86896 | -1.58635 | 34418 ft | 477 kts | 330° |
| 2026-04-29 18:23 | 53.92592 | -1.64458 | 34385 ft | 478 kts | 330° |
| 2026-04-29 18:24 | 53.98335 | -1.70206 | 34371 ft | 478 kts | 335° |
| 2026-04-29 18:24 | 54.04494 | -1.73598 | 34377 ft | 472 kts | 354° |
| 2026-04-29 18:25 | 54.10995 | -1.74063 | 34383 ft | 467 kts | 4° |
| 2026-04-29 18:25 | 54.17506 | -1.74032 | 34388 ft | 468 kts | 4° |
| 2026-04-29 18:26 | 54.23978 | -1.74011 | 34373 ft | 468 kts | 4° |
| 2026-04-29 18:26 | 54.30481 | -1.73986 | 34393 ft | 467 kts | 4° |
| 2026-04-29 18:27 | 54.36990 | -1.73967 | 34404 ft | 466 kts | 4° |
| 2026-04-29 18:27 | 54.43498 | -1.73939 | 34408 ft | 466 kts | 4° |
| 2026-04-29 18:28 | 54.49942 | -1.73915 | 34421 ft | 466 kts | 4° |
| 2026-04-29 18:28 | 54.56426 | -1.73893 | 34429 ft | 465 kts | 4° |
| 2026-04-29 18:29 | 54.62909 | -1.73872 | 34431 ft | 465 kts | 4° |
| 2026-04-29 18:29 | 54.69400 | -1.73861 | 34435 ft | 465 kts | 4° |
| 2026-04-29 18:30 | 54.75873 | -1.73841 | 34428 ft | 465 kts | 3° |
| 2026-04-29 18:30 | 54.82350 | -1.73820 | 34441 ft | 465 kts | 3° |
| 2026-04-29 18:31 | 54.88782 | -1.73785 | 34458 ft | 464 kts | 3° |
| 2026-04-29 18:31 | 54.95244 | -1.73759 | 34460 ft | 464 kts | 3° |
| 2026-04-29 18:32 | 55.01711 | -1.73738 | 34453 ft | 464 kts | 3° |
| 2026-04-29 18:32 | 55.11397 | -1.73696 | 34465 ft | 463 kts | 3° |
| 2026-04-29 18:33 | 55.17845 | -1.73670 | 34465 ft | 463 kts | 3° |
| 2026-04-29 18:33 | 55.24244 | -1.73647 | 34483 ft | 463 kts | 3° |
| 2026-04-29 18:34 | 55.29634 | -1.73637 | 34479 ft | 462 kts | 2° |
| 2026-04-29 18:34 | 55.33889 | -1.73629 | 34357 ft | 463 kts | 2° |
| 2026-04-29 18:34 | 55.37108 | -1.73621 | 33996 ft | 461 kts | 2° |
| 2026-04-29 18:35 | 55.40318 | -1.73607 | 33724 ft | 461 kts | 2° |
| 2026-04-29 18:35 | 55.43534 | -1.73588 | 33454 ft | 462 kts | 2° |
| 2026-04-29 18:35 | 55.46751 | -1.73572 | 33188 ft | 463 kts | 2° |
| 2026-04-29 18:35 | 55.49975 | -1.73559 | 32924 ft | 464 kts | 2° |
| 2026-04-29 18:36 | 55.53211 | -1.73547 | 32647 ft | 464 kts | 2° |
| 2026-04-29 18:36 | 55.56447 | -1.73536 | 32386 ft | 465 kts | 2° |
| 2026-04-29 18:36 | 55.59686 | -1.73526 | 32130 ft | 466 kts | 2° |
| 2026-04-29 18:36 | 55.62929 | -1.73515 | 31875 ft | 465 kts | 2° |
| 2026-04-29 18:37 | 55.66165 | -1.73502 | 31621 ft | 464 kts | 2° |
| 2026-04-29 18:37 | 55.69393 | -1.73491 | 31374 ft | 463 kts | 2° |
| 2026-04-29 18:37 | 55.72608 | -1.73483 | 31127 ft | 462 kts | 2° |
| 2026-04-29 18:37 | 55.75821 | -1.73475 | 30853 ft | 460 kts | 2° |
| 2026-04-29 18:38 | 55.79007 | -1.73468 | 30188 ft | 457 kts | 1° |
| 2026-04-29 18:38 | 55.82182 | -1.73459 | 29573 ft | 453 kts | 1° |
| 2026-04-29 18:38 | 55.85327 | -1.73444 | 28965 ft | 449 kts | 2° |
| 2026-04-29 18:38 | 55.88437 | -1.73428 | 28370 ft | 445 kts | 2° |
| 2026-04-29 18:39 | 55.91524 | -1.73635 | 27780 ft | 443 kts | 355° |
| 2026-04-29 18:39 | 55.94553 | -1.74594 | 27218 ft | 440 kts | 349° |
| 2026-04-29 18:39 | 55.97547 | -1.75706 | 26658 ft | 437 kts | 350° |
| 2026-04-29 18:39 | 56.00469 | -1.76786 | 26120 ft | 433 kts | 350° |
| 2026-04-29 18:40 | 56.03413 | -1.77867 | 25589 ft | 430 kts | 350° |
| 2026-04-29 18:40 | 56.06333 | -1.78944 | 25074 ft | 426 kts | 350° |
| 2026-04-29 18:40 | 56.09222 | -1.80014 | 24559 ft | 422 kts | 350° |
| 2026-04-29 18:40 | 56.12092 | -1.81078 | 24078 ft | 419 kts | 350° |
| 2026-04-29 18:41 | 56.20519 | -1.84209 | 22627 ft | 405 kts | 351° |
| 2026-04-29 18:41 | 56.23264 | -1.85230 | 22174 ft | 400 kts | 351° |
| 2026-04-29 18:42 | 56.25983 | -1.86243 | 21721 ft | 397 kts | 351° |
| 2026-04-29 18:42 | 56.28678 | -1.87250 | 21264 ft | 394 kts | 351° |
| 2026-04-29 18:42 | 56.31314 | -1.88241 | 20808 ft | 390 kts | 351° |
| 2026-04-29 18:42 | 56.33968 | -1.89242 | 20337 ft | 388 kts | 351° |
| 2026-04-29 18:43 | 56.36606 | -1.90237 | 19873 ft | 386 kts | 351° |
| 2026-04-29 18:43 | 56.39231 | -1.91232 | 19394 ft | 385 kts | 351° |
| 2026-04-29 18:43 | 56.41846 | -1.92226 | 18924 ft | 383 kts | 352° |
| 2026-04-29 18:43 | 56.44453 | -1.93218 | 18410 ft | 382 kts | 352° |
| 2026-04-29 18:44 | 56.47046 | -1.94203 | 17940 ft | 379 kts | 352° |
| 2026-04-29 18:44 | 56.49627 | -1.95180 | 17466 ft | 377 kts | 352° |
| 2026-04-29 18:44 | 56.52157 | -1.96135 | 17006 ft | 374 kts | 352° |
| 2026-04-29 18:44 | 56.54703 | -1.97095 | 16547 ft | 372 kts | 352° |
| 2026-04-29 18:45 | 56.57232 | -1.98054 | 16086 ft | 370 kts | 352° |
| 2026-04-29 18:45 | 56.59746 | -1.99013 | 15638 ft | 368 kts | 352° |
| 2026-04-29 18:45 | 56.62247 | -1.99968 | 15188 ft | 366 kts | 352° |
| 2026-04-29 18:45 | 56.64734 | -2.00917 | 14737 ft | 365 kts | 352° |
| 2026-04-29 18:46 | 56.67215 | -2.01864 | 14279 ft | 363 kts | 352° |
| 2026-04-29 18:46 | 56.69687 | -2.02813 | 13791 ft | 361 kts | 352° |
| 2026-04-29 18:46 | 56.72139 | -2.03751 | 13326 ft | 359 kts | 352° |
| 2026-04-29 18:46 | 56.74577 | -2.04680 | 12866 ft | 356 kts | 351° |
| 2026-04-29 18:47 | 56.76993 | -2.05604 | 12399 ft | 354 kts | 351° |
| 2026-04-29 18:47 | 56.79403 | -2.06533 | 11931 ft | 352 kts | 351° |
| 2026-04-29 18:47 | 56.81795 | -2.07459 | 11460 ft | 351 kts | 351° |
| 2026-04-29 18:47 | 56.84180 | -2.08383 | 10988 ft | 349 kts | 350° |
| 2026-04-29 18:48 | 56.86526 | -2.09294 | 10787 ft | 339 kts | 350° |
| 2026-04-29 18:48 | 56.88794 | -2.10176 | 10664 ft | 327 kts | 350° |
| 2026-04-29 18:48 | 56.90953 | -2.11019 | 10546 ft | 316 kts | 350° |
| 2026-04-29 18:48 | 56.93076 | -2.11850 | 10314 ft | 309 kts | 350° |
| 2026-04-29 18:49 | 56.95186 | -2.12669 | 9899 ft | 308 kts | 350° |
| 2026-04-29 18:49 | 56.97266 | -2.13474 | 9626 ft | 302 kts | 350° |
| 2026-04-29 18:49 | 56.99319 | -2.14270 | 9321 ft | 300 kts | 350° |
| 2026-04-29 18:49 | 57.01332 | -2.15048 | 8936 ft | 298 kts | 350° |
| 2026-04-29 18:50 | 57.03357 | -2.15831 | 8561 ft | 296 kts | 350° |
| 2026-04-29 18:50 | 57.05371 | -2.16616 | 8183 ft | 294 kts | 349° |
| 2026-04-29 18:50 | 57.07368 | -2.17398 | 7820 ft | 292 kts | 349° |
| 2026-04-29 18:50 | 57.09352 | -2.18179 | 7437 ft | 290 kts | 349° |
| 2026-04-29 18:51 | 57.11320 | -2.18954 | 7079 ft | 288 kts | 349° |
| 2026-04-29 18:51 | 57.13232 | -2.19707 | 6715 ft | 286 kts | 349° |
| 2026-04-29 18:51 | 57.15175 | -2.20470 | 6329 ft | 284 kts | 349° |
| 2026-04-29 18:51 | 57.17084 | -2.21218 | 5950 ft | 283 kts | 349° |
| 2026-04-29 18:52 | 57.19008 | -2.21971 | 5594 ft | 281 kts | 349° |
| 2026-04-29 18:52 | 57.20859 | -2.22699 | 5466 ft | 269 kts | 348° |
| 2026-04-29 18:52 | 57.22644 | -2.23404 | 5332 ft | 253 kts | 349° |
| 2026-04-29 18:52 | 57.24306 | -2.24061 | 5169 ft | 238 kts | 349° |
| 2026-04-29 18:53 | 57.25904 | -2.24691 | 4918 ft | 230 kts | 348° |
| 2026-04-29 18:53 | 57.27449 | -2.25300 | 4671 ft | 223 kts | 348° |
| 2026-04-29 18:53 | 57.28942 | -2.25890 | 4442 ft | 216 kts | 348° |
| 2026-04-29 18:53 | 57.30403 | -2.26298 | 4226 ft | 215 kts | 3° |
| 2026-04-29 18:54 | 57.31836 | -2.25678 | 4016 ft | 211 kts | 30° |
| 2026-04-29 18:54 | 57.33048 | -2.24247 | 3805 ft | 203 kts | 37° |
| 2026-04-29 18:54 | 57.34213 | -2.22791 | 3540 ft | 201 kts | 37° |
| 2026-04-29 18:54 | 57.34979 | -2.21834 | 3363 ft | 200 kts | 36° |
| 2026-04-29 18:55 | 57.36192 | -2.20573 | 3101 ft | 203 kts | 16° |
| 2026-04-29 18:55 | 57.37576 | -2.20694 | 2855 ft | 202 kts | 335° |
| 2026-04-29 18:55 | 57.38674 | -2.22241 | 2682 ft | 197 kts | 307° |
| 2026-04-29 18:55 | 57.39313 | -2.24391 | 2561 ft | 183 kts | 280° |
| 2026-04-29 18:56 | 57.39382 | -2.26622 | 2501 ft | 167 kts | 250° |
| 2026-04-29 18:56 | 57.38785 | -2.28309 | 2504 ft | 154 kts | 214° |
| 2026-04-29 18:56 | 57.37876 | -2.29262 | 2504 ft | 149 kts | 202° |
| 2026-04-29 18:56 | 57.36931 | -2.30025 | 2506 ft | 148 kts | 200° |
| 2026-04-29 18:57 | 57.35967 | -2.30731 | 2507 ft | 149 kts | 191° |
| 2026-04-29 18:57 | 57.34935 | -2.30694 | 2514 ft | 151 kts | 163° |
| 2026-04-29 18:57 | 57.33955 | -2.29988 | 2506 ft | 152 kts | 160° |
| 2026-04-29 18:57 | 57.32970 | -2.29252 | 2510 ft | 152 kts | 160° |
| 2026-04-29 18:58 | 57.32010 | -2.28536 | 2481 ft | 150 kts | 160° |
| 2026-04-29 18:58 | 57.31037 | -2.27813 | 2347 ft | 151 kts | 160° |
| 2026-04-29 18:58 | 57.30073 | -2.27096 | 2169 ft | 148 kts | 159° |
| 2026-04-29 18:58 | 57.29120 | -2.26389 | 1973 ft | 147 kts | 159° |
| 2026-04-29 18:59 | 57.28170 | -2.25684 | 1773 ft | 147 kts | 159° |
| 2026-04-29 18:59 | 57.27233 | -2.24989 | 1580 ft | 141 kts | 159° |
| 2026-04-29 18:59 | 57.26361 | -2.24342 | 1401 ft | 132 kts | 160° |
| 2026-04-29 18:59 | 57.25521 | -2.23720 | 1216 ft | 129 kts | 160° |
| 2026-04-29 19:00 | 57.24696 | -2.23110 | 1032 ft | 127 kts | 160° |
| 2026-04-29 19:00 | 57.23876 | -2.22500 | 854 ft | 127 kts | 160° |
| 2026-04-29 19:00 | 57.23051 | -2.21889 | 680 ft | 128 kts | 159° |
| 2026-04-29 19:00 | 57.22228 | -2.21282 | 505 ft | 127 kts | 160° |
| 2026-04-29 19:01 | 57.21409 | -2.20679 | 334 ft | 126 kts | 159° |
| 2026-04-29 19:01 | 57.20607 | -2.20082 | 252 ft | 117 kts | 158° |
| 2026-04-29 19:01 | 57.20007 | -2.19638 | 250 ft | 77 kts | 158° |
| 2026-04-29 19:01 | 57.19684 | -2.19401 | 250 ft | 27 kts | 158° |
| 2026-04-29 19:02 | 57.19523 | -2.19283 | 247 ft | 21 kts | 159° |
| 2026-04-29 19:02 | 57.19445 | -2.19257 | 247 ft | 10 kts | 205° |
| 2026-04-29 19:02 | 57.19436 | -2.19372 | 247 ft | 9 kts | 302° |
| 2026-04-29 19:02 | 57.19479 | -2.19445 | 247 ft | 8 kts | 320° |
| 2026-04-29 19:03 | 57.19518 | -2.19508 | 247 ft | 8 kts | 318° |
| 2026-04-29 19:03 | 57.19575 | -2.19600 | 247 ft | 13 kts | 319° |
| 2026-04-29 19:03 | 57.19660 | -2.19706 | 247 ft | 16 kts | 338° |
| 2026-04-29 19:03 | 57.19765 | -2.19784 | 247 ft | 16 kts | 338° |
| 2026-04-29 19:04 | 57.19860 | -2.19856 | 247 ft | 14 kts | 332° |
| 2026-04-29 19:04 | 57.19928 | -2.19969 | 247 ft | 12 kts | 316° |
| 2026-04-29 19:04 | 57.19991 | -2.20066 | 247 ft | 11 kts | 334° |
| 2026-04-29 19:04 | 57.20062 | -2.20121 | 247 ft | 11 kts | 338° |
| 2026-04-29 19:05 | 57.20133 | -2.20173 | 247 ft | 10 kts | 338° |
| 2026-04-29 19:05 | 57.20154 | -2.20229 | 247 ft | 5 kts | 249° |
| 2026-04-29 19:05 | 57.20139 | -2.20296 | 247 ft | 4 kts | 248° |
| 2026-04-29 19:05 | 57.20136 | -2.20310 | 247 ft | 3 kts | 248° |
| 2026-04-29 19:06 | 57.20135 | -2.20312 | 247 ft | 0 kts | 248° |